createdAt,value
2018-07-23T00:01:34.662Z,97.30
2018-07-23T00:04:04.854Z,97.30
2018-07-23T00:06:35.329Z,97.30
2018-07-23T00:09:07.687Z,97.40
2018-07-23T00:11:39.239Z,97.50
2018-07-23T00:14:09.080Z,97.40
2018-07-23T00:16:38.991Z,97.40
2018-07-23T00:19:09.154Z,97.40
2018-07-23T00:21:39.096Z,97.50
2018-07-23T00:24:09.094Z,97.50
2018-07-23T00:26:39.185Z,97.50
2018-07-23T00:29:07.873Z,97.60
2018-07-23T00:31:36.451Z,97.60
2018-07-23T00:34:05.042Z,97.50
2018-07-23T00:36:33.663Z,97.50
2018-07-23T00:39:02.274Z,97.40
2018-07-23T00:41:30.974Z,97.40
2018-07-23T00:43:59.566Z,97.40
2018-07-23T00:46:28.238Z,97.40
2018-07-23T00:48:56.835Z,97.30
2018-07-23T00:51:25.452Z,97.30
2018-07-23T00:53:54.041Z,97.30
2018-07-23T00:56:22.676Z,97.30
2018-07-23T00:58:51.318Z,97.40
2018-07-23T01:01:19.970Z,97.50
2018-07-23T01:03:48.569Z,97.50
2018-07-23T01:06:17.138Z,97.30
2018-07-23T01:08:45.805Z,97.20
2018-07-23T01:11:14.466Z,97.20
2018-07-23T01:13:43.148Z,97.20
2018-07-23T01:16:11.717Z,97.20
2018-07-23T01:18:40.401Z,97.40
2018-07-23T01:21:09.046Z,97.50
2018-07-23T01:23:37.682Z,97.70
2018-07-23T01:26:06.950Z,97.80
2018-07-23T01:28:35.617Z,97.80
2018-07-23T01:31:04.304Z,97.80
2018-07-23T01:33:32.960Z,97.90
2018-07-23T01:36:01.622Z,97.90
2018-07-23T01:38:30.268Z,97.90
2018-07-23T01:40:59.113Z,97.90
2018-07-23T01:43:27.739Z,97.90
2018-07-23T01:45:56.391Z,97.90
2018-07-23T01:48:25.023Z,97.90
2018-07-23T01:50:53.807Z,97.90
2018-07-23T01:53:22.479Z,97.90
2018-07-23T01:55:51.160Z,97.90
2018-07-23T01:58:19.809Z,97.90
2018-07-23T02:00:48.419Z,97.90
2018-07-23T02:03:16.983Z,97.80
2018-07-23T02:05:45.619Z,97.60
2018-07-23T02:08:14.273Z,97.50
2018-07-23T02:10:42.886Z,97.40
2018-07-23T02:13:11.566Z,97.50
2018-07-23T02:15:40.143Z,97.50
2018-07-23T02:18:08.825Z,97.60
2018-07-23T02:20:37.423Z,97.60
2018-07-23T02:23:06.176Z,97.70
2018-07-23T02:25:34.785Z,97.70
2018-07-23T02:28:03.491Z,97.80
2018-07-23T02:30:32.156Z,98.10
2018-07-23T02:33:00.816Z,98.20
2018-07-23T02:35:29.368Z,98.20
2018-07-23T02:40:51.931Z,98.20
2018-07-23T02:43:20.518Z,98.20
2018-07-23T02:45:49.019Z,98.20
2018-07-23T02:48:17.672Z,98.20
2018-07-23T02:50:46.301Z,98.20
2018-07-23T02:53:15.058Z,98.30
2018-07-23T02:55:43.739Z,98.30
2018-07-23T02:58:12.464Z,98.40
2018-07-23T03:00:41.122Z,98.30
2018-07-23T03:03:10.200Z,98.30
2018-07-23T03:05:38.856Z,98.30
2018-07-23T03:08:07.548Z,98.30
2018-07-23T03:10:36.212Z,98.20
2018-07-23T03:13:04.943Z,98.20
2018-07-23T03:15:33.648Z,98.10
2018-07-23T03:18:02.346Z,98.10
2018-07-23T03:20:31.104Z,98.10
2018-07-23T03:22:59.824Z,98.10
2018-07-23T03:25:28.505Z,98.10
2018-07-23T03:27:57.185Z,98.00
2018-07-23T03:30:25.945Z,97.90
2018-07-23T03:32:54.647Z,97.90
2018-07-23T03:35:23.428Z,97.70
2018-07-23T03:37:52.112Z,97.70
2018-07-23T03:40:20.888Z,97.70
2018-07-23T03:42:49.578Z,97.60
2018-07-23T03:45:18.264Z,97.50
2018-07-23T03:47:46.954Z,97.40
2018-07-23T03:50:15.625Z,97.50
2018-07-23T03:52:44.336Z,97.50
2018-07-23T03:55:13.211Z,97.60
2018-07-23T03:57:41.909Z,97.60
2018-07-23T04:00:10.580Z,97.60
2018-07-23T04:02:39.232Z,97.60
2018-07-23T04:05:07.845Z,97.50
2018-07-23T04:07:36.429Z,97.60
2018-07-23T04:10:05.400Z,97.70
2018-07-23T04:12:34.039Z,97.70
2018-07-23T04:15:02.637Z,97.70
2018-07-23T04:17:31.362Z,97.80
2018-07-23T04:19:59.992Z,97.80
2018-07-23T04:22:28.619Z,97.80
2018-07-23T04:24:57.253Z,97.70
2018-07-23T04:27:25.781Z,97.50
2018-07-23T04:29:54.353Z,97.20
2018-07-23T04:32:22.968Z,97.20
2018-07-23T04:34:51.801Z,97.00
2018-07-23T04:37:20.380Z,97.00
2018-07-23T04:39:48.947Z,97.00
2018-07-23T04:42:17.673Z,97.00
2018-07-23T04:44:46.444Z,96.80
2018-07-23T04:47:15.076Z,96.80
2018-07-23T04:49:43.688Z,96.90
2018-07-23T04:52:12.460Z,96.90
2018-07-23T04:54:41.182Z,96.70
2018-07-23T04:57:09.805Z,96.50
2018-07-23T04:59:43.592Z,96.40
2018-07-23T05:02:12.299Z,96.40
2018-07-23T05:04:40.943Z,96.10
2018-07-23T05:07:09.566Z,96.00
2018-07-23T05:09:38.219Z,95.90
2018-07-23T05:12:06.958Z,95.90
2018-07-23T05:14:35.590Z,95.90
2018-07-23T05:17:05.020Z,96.10
2018-07-23T05:19:33.641Z,95.80
2018-07-23T05:22:02.328Z,95.70
2018-07-23T05:24:30.999Z,95.60
2018-07-23T05:26:59.571Z,95.40
2018-07-23T05:29:28.249Z,95.30
2018-07-23T05:31:56.861Z,95.40
2018-07-23T05:34:25.441Z,95.20
2018-07-23T05:36:54.110Z,95.10
2018-07-23T05:39:22.678Z,95.00
2018-07-23T05:41:51.368Z,94.70
2018-07-23T05:44:20.492Z,94.70
2018-07-23T05:46:49.061Z,94.50
2018-07-23T05:49:17.772Z,94.70
2018-07-23T05:51:46.409Z,94.80
2018-07-23T05:54:15.099Z,94.60
2018-07-23T05:56:43.720Z,94.40
2018-07-23T05:59:12.365Z,94.20
2018-07-23T06:01:41.067Z,93.90
2018-07-23T06:04:09.616Z,93.70
2018-07-23T06:06:38.339Z,92.60
2018-07-23T06:09:08.420Z,93.00
2018-07-23T06:11:37.013Z,93.30
2018-07-23T06:14:05.720Z,93.30
2018-07-23T06:16:34.451Z,93.40
2018-07-23T06:19:03.091Z,93.20
2018-07-23T06:21:31.761Z,92.90
2018-07-23T06:24:00.418Z,92.20
2018-07-23T06:26:29.027Z,91.50
2018-07-23T06:28:57.572Z,91.60
2018-07-23T06:31:26.033Z,91.70
2018-07-23T06:33:54.684Z,91.60
2018-07-23T06:36:23.391Z,91.30
2018-07-23T06:38:52.084Z,90.90
2018-07-23T06:41:20.808Z,90.10
2018-07-23T06:43:49.508Z,90.60
2018-07-23T06:46:18.154Z,90.70
2018-07-23T06:48:46.885Z,90.30
2018-07-23T06:51:15.547Z,90.00
2018-07-23T06:53:44.321Z,90.00
2018-07-23T06:56:12.995Z,88.60
2018-07-23T06:58:41.616Z,88.80
2018-07-23T07:01:10.302Z,88.70
2018-07-23T07:03:39.003Z,86.90
2018-07-23T07:06:07.567Z,88.20
2018-07-23T07:08:36.232Z,87.90
2018-07-23T07:11:04.970Z,86.90
2018-07-23T07:13:33.654Z,87.60
2018-07-23T07:16:02.293Z,86.40
2018-07-23T07:18:30.973Z,86.40
2018-07-23T07:20:59.617Z,86.20
2018-07-23T07:23:28.294Z,84.50
2018-07-23T07:25:56.988Z,85.00
2018-07-23T07:28:25.692Z,83.90
2018-07-23T07:30:54.416Z,82.50
2018-07-23T07:33:23.133Z,81.90
2018-07-23T07:35:51.845Z,82.00
2018-07-23T07:38:20.542Z,80.90
2018-07-23T07:40:49.212Z,80.00
2018-07-23T07:43:17.845Z,78.60
2018-07-23T07:45:46.458Z,79.90
2018-07-23T07:48:15.052Z,81.90
2018-07-23T07:51:02.447Z,80.80
2018-07-23T07:53:31.080Z,78.70
2018-07-23T07:55:59.741Z,78.90
2018-07-23T07:58:28.370Z,78.50
2018-07-23T08:00:56.965Z,79.10
2018-07-23T08:03:25.624Z,78.50
2018-07-23T08:05:54.215Z,79.90
2018-07-23T08:08:22.815Z,78.70
2018-07-23T08:10:51.462Z,76.70
2018-07-23T08:13:20.156Z,77.30
2018-07-23T08:15:48.845Z,75.00
2018-07-23T08:18:17.531Z,74.20
2018-07-23T08:20:46.095Z,74.20
2018-07-23T08:23:14.807Z,75.50
2018-07-23T08:25:43.412Z,76.40
2018-07-23T08:28:12.072Z,76.90
2018-07-23T08:30:40.655Z,75.90
2018-07-23T08:33:09.317Z,75.50
2018-07-23T08:35:37.957Z,77.00
2018-07-23T08:38:06.620Z,78.10
2018-07-23T08:40:35.361Z,77.70
2018-07-23T08:43:04.009Z,77.90
2018-07-23T08:45:32.636Z,75.20
2018-07-23T08:48:01.342Z,74.20
2018-07-23T08:50:29.945Z,73.80
2018-07-23T08:52:58.717Z,72.90
2018-07-23T08:55:27.541Z,72.70
2018-07-23T08:57:56.292Z,73.50
2018-07-23T09:00:24.888Z,71.90
2018-07-23T09:02:53.558Z,74.80
2018-07-23T09:05:22.129Z,74.20
2018-07-23T09:07:50.889Z,72.70
2018-07-23T09:10:19.559Z,72.30
2018-07-23T09:12:48.255Z,70.00
2018-07-23T09:15:16.923Z,71.40
2018-07-23T09:17:46.405Z,72.20
2018-07-23T09:20:15.118Z,69.30
2018-07-23T09:22:43.781Z,67.80
2018-07-23T09:25:12.412Z,67.80
2018-07-23T09:27:40.944Z,69.60
2018-07-23T09:31:14.996Z,68.00
2018-07-23T09:33:43.721Z,68.20
2018-07-23T09:36:12.319Z,70.00
2018-07-23T09:38:40.896Z,68.10
2018-07-23T09:41:09.452Z,67.90
2018-07-23T09:43:38.071Z,66.30
2018-07-23T09:46:06.589Z,67.20
2018-07-23T09:48:35.123Z,65.60
2018-07-23T09:51:03.686Z,63.50
2018-07-23T09:53:32.309Z,65.10
2018-07-23T09:56:00.818Z,63.20
2018-07-23T09:58:29.343Z,63.40
2018-07-23T10:01:02.076Z,63.20
2018-07-23T10:03:32.962Z,63.50
2018-07-23T10:06:01.448Z,64.10
2018-07-23T10:08:29.959Z,63.60
2018-07-23T10:10:58.554Z,63.20
2018-07-23T10:13:27.058Z,61.30
2018-07-23T10:15:55.561Z,61.20
2018-07-23T10:18:24.096Z,61.40
2018-07-23T10:20:52.699Z,60.90
2018-07-23T10:23:21.176Z,60.50
2018-07-23T10:25:49.709Z,63.70
2018-07-23T10:28:18.282Z,62.20
2018-07-23T10:30:46.827Z,61.30
2018-07-23T10:33:15.408Z,61.70
2018-07-23T10:35:44.003Z,59.60
2018-07-23T10:38:12.532Z,60.50
2018-07-23T10:40:41.111Z,61.60
2018-07-23T10:43:09.752Z,61.00
2018-07-23T10:45:38.295Z,59.20
2018-07-23T10:48:07.036Z,58.80
2018-07-23T10:50:35.585Z,57.30
2018-07-23T10:53:04.200Z,57.60
2018-07-23T10:55:32.730Z,59.00
2018-07-23T10:58:01.268Z,60.20
2018-07-23T11:00:29.851Z,59.30
2018-07-23T11:02:58.468Z,58.80
2018-07-23T11:05:27.090Z,56.80
2018-07-23T11:07:55.621Z,59.20
2018-07-23T11:10:24.291Z,58.40
2018-07-23T11:12:52.835Z,58.50
2018-07-23T11:15:21.381Z,59.00
2018-07-23T11:17:49.941Z,58.40
2018-07-23T11:20:18.484Z,57.80
2018-07-23T11:22:47.789Z,58.50
2018-07-23T11:25:38.702Z,59.20
2018-07-23T11:27:45.117Z,58.90
2018-07-23T11:30:19.945Z,58.50
2018-07-23T11:32:48.481Z,59.10
2018-07-23T11:35:16.972Z,58.00
2018-07-23T11:37:45.571Z,57.70
2018-07-23T11:40:14.132Z,62.20
2018-07-23T11:42:42.762Z,59.40
2018-07-23T11:45:12.416Z,58.60
2018-07-23T11:47:41.695Z,60.90
2018-07-23T11:50:10.232Z,58.80
2018-07-23T11:52:38.916Z,58.70
2018-07-23T11:55:07.544Z,58.70
2018-07-23T11:57:35.948Z,57.90
2018-07-23T12:00:04.746Z,57.20
2018-07-23T12:02:33.216Z,56.70
2018-07-23T12:05:01.690Z,54.80
2018-07-23T12:07:30.212Z,56.60
2018-07-23T12:09:58.660Z,57.90
2018-07-23T12:12:29.100Z,56.20
2018-07-23T12:14:57.656Z,57.90
2018-07-23T12:17:26.304Z,61.20
2018-07-23T12:19:54.905Z,58.00
2018-07-23T12:22:23.759Z,58.20
2018-07-23T12:24:52.532Z,58.40
2018-07-23T12:27:21.244Z,60.00
2018-07-23T12:29:49.964Z,57.80
2018-07-23T12:32:18.744Z,55.70
2018-07-23T12:34:48.746Z,53.60
2018-07-23T12:37:17.348Z,56.80
2018-07-23T12:39:46.000Z,53.80
2018-07-23T12:42:14.572Z,53.80
2018-07-23T12:44:43.261Z,53.40
2018-07-23T12:47:12.027Z,55.80
2018-07-23T12:49:40.672Z,56.90
2018-07-23T12:52:09.243Z,56.70
2018-07-23T12:54:37.998Z,59.70
2018-07-23T12:57:06.656Z,57.70
2018-07-23T12:59:53.972Z,58.70
2018-07-23T13:02:22.604Z,57.90
2018-07-23T13:04:51.275Z,54.00
2018-07-23T13:07:19.860Z,55.20
2018-07-23T13:09:48.451Z,55.10
2018-07-23T13:12:17.070Z,51.70
2018-07-23T13:14:45.647Z,50.30
2018-07-23T13:17:14.291Z,52.20
2018-07-23T13:19:42.989Z,53.60
2018-07-23T13:22:11.636Z,51.40
2018-07-23T13:24:40.373Z,50.70
2018-07-23T13:27:08.938Z,49.40
2018-07-23T13:29:37.625Z,52.70
2018-07-23T13:32:06.309Z,51.30
2018-07-23T13:34:34.994Z,49.60
2018-07-23T13:37:04.864Z,50.50
2018-07-23T13:39:33.691Z,48.40
2018-07-23T13:42:02.269Z,45.60
2018-07-23T13:44:30.988Z,46.60
2018-07-23T13:46:59.693Z,47.70
2018-07-23T13:49:28.464Z,45.50
2018-07-23T13:51:57.262Z,45.30
2018-07-23T13:54:25.883Z,44.30
2018-07-23T13:56:54.492Z,44.50
2018-07-23T13:59:23.159Z,45.20
2018-07-23T14:01:51.749Z,45.70
2018-07-23T14:04:20.332Z,44.20
2018-07-23T14:06:48.845Z,43.10
2018-07-23T14:09:17.354Z,43.60
2018-07-23T14:11:45.977Z,46.40
2018-07-23T14:14:14.560Z,44.30
2018-07-23T14:16:43.030Z,44.30
2018-07-23T14:19:11.642Z,44.30
2018-07-23T14:21:40.246Z,46.20
2018-07-23T14:24:08.822Z,46.70
2018-07-23T14:26:37.390Z,48.50
2018-07-23T14:29:06.216Z,49.20
2018-07-23T14:31:34.781Z,50.40
2018-07-23T14:34:03.393Z,51.50
2018-07-23T14:36:31.964Z,52.00
2018-07-23T14:39:00.500Z,50.50
2018-07-23T14:41:29.036Z,49.70
2018-07-23T14:44:08.012Z,49.20
2018-07-23T14:46:36.681Z,47.90
2018-07-23T14:49:05.595Z,47.40
2018-07-23T14:51:34.268Z,47.40
2018-07-23T14:54:02.813Z,46.80
2018-07-23T14:56:31.448Z,50.00
2018-07-23T14:59:00.056Z,50.50
2018-07-23T15:01:28.889Z,49.40
2018-07-23T15:03:57.525Z,52.60
2018-07-23T15:06:26.517Z,55.00
2018-07-23T15:08:55.093Z,57.20
2018-07-23T15:11:23.951Z,54.60
2018-07-23T15:13:52.796Z,53.90
2018-07-23T15:19:14.140Z,51.60
2018-07-23T15:21:42.780Z,51.80
2018-07-23T15:24:11.388Z,49.30
2018-07-23T15:26:40.070Z,49.30
2018-07-23T15:29:08.633Z,50.40
2018-07-23T15:31:37.264Z,50.20
2018-07-23T15:34:05.900Z,50.50
2018-07-23T15:36:34.524Z,50.20
2018-07-23T15:39:03.171Z,51.90
2018-07-23T15:41:31.723Z,49.80
2018-07-23T15:44:00.343Z,49.50
2018-07-23T15:46:29.008Z,48.60
2018-07-23T15:48:57.595Z,48.30
2018-07-23T15:51:26.323Z,49.10
2018-07-23T15:53:54.996Z,50.60
2018-07-23T15:56:23.659Z,51.60
2018-07-23T15:58:52.385Z,53.70
2018-07-23T16:01:22.119Z,53.10
2018-07-23T16:03:50.948Z,50.80
2018-07-23T16:06:19.705Z,52.70
2018-07-23T16:08:49.229Z,51.30
2018-07-23T16:11:17.924Z,51.90
2018-07-23T16:13:46.541Z,52.00
2018-07-23T16:16:15.444Z,51.70
2018-07-23T16:18:44.148Z,49.50
2018-07-23T16:21:13.978Z,48.10
2018-07-23T16:23:42.929Z,48.90
2018-07-23T16:26:11.861Z,48.00
2018-07-23T16:28:40.403Z,47.70
2018-07-23T16:31:09.131Z,50.20
2018-07-23T16:36:30.883Z,46.90
2018-07-23T16:38:59.485Z,48.60
2018-07-23T16:41:28.909Z,50.00
2018-07-23T16:43:57.650Z,49.40
2018-07-23T16:46:26.300Z,51.00
2018-07-23T16:48:55.639Z,50.70
2018-07-23T16:51:41.580Z,51.30
2018-07-23T16:54:10.753Z,50.00
2018-07-23T16:56:39.340Z,52.90
2018-07-23T16:59:07.979Z,52.70
2018-07-23T17:01:37.216Z,51.30
2018-07-23T17:04:05.903Z,51.70
2018-07-23T17:06:34.547Z,49.70
2018-07-23T17:09:03.263Z,49.40
2018-07-23T17:11:32.116Z,50.10
2018-07-23T17:14:00.708Z,49.40
2018-07-23T17:16:29.508Z,48.40
2018-07-23T17:18:58.856Z,49.30
2018-07-23T17:21:27.611Z,49.50
2018-07-23T17:23:56.243Z,49.30
2018-07-23T17:26:49.462Z,49.60
2018-07-23T17:29:18.589Z,49.00
2018-07-23T17:31:47.459Z,50.00
2018-07-23T17:34:17.203Z,49.00
2018-07-23T17:36:46.159Z,49.50
2018-07-23T17:39:14.759Z,49.10
2018-07-23T17:41:43.541Z,50.90
2018-07-23T17:44:12.751Z,51.20
2018-07-23T17:46:42.651Z,51.70
2018-07-23T17:49:11.532Z,52.20
2018-07-23T17:51:40.369Z,51.20
2018-07-23T17:54:08.965Z,53.80
2018-07-23T17:56:37.639Z,54.90
2018-07-23T17:59:06.348Z,54.90
2018-07-23T18:01:35.654Z,55.20
2018-07-23T18:04:04.977Z,55.40
2018-07-23T18:06:33.592Z,56.80
2018-07-23T18:09:02.695Z,56.30
2018-07-23T18:11:32.492Z,57.20
2018-07-23T18:14:01.120Z,56.20
2018-07-23T18:16:29.996Z,56.70
2018-07-23T18:18:58.556Z,56.90
2018-07-23T18:21:27.332Z,56.90
2018-07-23T18:23:55.920Z,58.10
2018-07-23T18:26:24.680Z,58.50
2018-07-23T18:28:53.960Z,58.80
2018-07-23T18:31:23.298Z,59.90
2018-07-23T18:33:51.920Z,61.60
2018-07-23T18:36:20.695Z,61.90
2018-07-23T18:38:49.799Z,63.70
2018-07-23T18:41:19.296Z,64.90
2018-07-23T18:43:47.976Z,65.80
2018-07-23T18:46:17.548Z,66.60
2018-07-23T18:49:38.971Z,67.10
2018-07-23T18:52:07.639Z,67.90
2018-07-23T18:54:36.725Z,68.50
2018-07-23T18:57:06.964Z,69.30
2018-07-23T18:59:35.595Z,69.60
2018-07-23T19:02:05.544Z,69.90
2018-07-23T19:04:34.164Z,70.80
2018-07-23T19:07:02.770Z,71.30
2018-07-23T19:09:31.539Z,71.90
2018-07-23T19:12:00.659Z,72.50
2018-07-23T19:14:29.439Z,72.90
2018-07-23T19:16:58.940Z,73.50
2018-07-23T19:19:27.588Z,74.00
2018-07-23T19:21:56.882Z,74.20
2018-07-23T19:24:26.773Z,74.60
2018-07-23T19:26:55.785Z,74.60
2018-07-23T19:29:24.696Z,73.40
2018-07-23T19:32:04.073Z,73.70
2018-07-23T19:34:33.011Z,74.80
2018-07-23T19:37:01.587Z,75.60
2018-07-23T19:39:30.395Z,76.00
2018-07-23T19:41:59.418Z,76.80
2018-07-23T19:44:28.425Z,76.90
2018-07-23T19:46:57.042Z,77.40
2018-07-23T19:49:25.945Z,77.90
2018-07-23T19:51:54.819Z,78.00
2018-07-23T19:54:23.644Z,78.10
2018-07-23T19:56:52.206Z,78.40
2018-07-23T19:59:21.055Z,79.20
2018-07-23T20:01:51.872Z,79.30
2018-07-23T20:04:20.690Z,79.70
2018-07-23T20:06:49.340Z,80.00
2018-07-23T20:09:17.885Z,80.30
2018-07-23T20:11:46.591Z,80.90
2018-07-23T20:14:15.485Z,80.90
2018-07-23T20:16:44.792Z,81.10
2018-07-23T20:25:06.124Z,81.90
2018-07-23T20:27:35.276Z,82.10
2018-07-23T20:30:04.172Z,82.40
2018-07-23T20:35:37.249Z,82.70
2018-07-23T20:38:05.900Z,82.80
2018-07-23T20:40:34.542Z,83.10
2018-07-23T20:43:03.112Z,83.40
2018-07-23T20:45:38.217Z,83.60
2018-07-23T20:48:07.036Z,83.70
2018-07-23T20:50:36.430Z,83.60
2018-07-23T20:53:05.224Z,83.60
2018-07-23T20:55:33.954Z,83.70
2018-07-23T20:58:02.504Z,83.70
2018-07-23T21:00:31.419Z,83.80
2018-07-23T21:03:00.103Z,84.00
2018-07-23T21:05:28.850Z,84.40
2018-07-23T21:07:58.840Z,84.60
2018-07-23T21:10:27.607Z,85.00
2018-07-23T21:12:56.298Z,85.20
2018-07-23T21:15:25.956Z,85.40
2018-07-23T21:17:54.768Z,85.40
2018-07-23T21:20:23.397Z,85.60
2018-07-23T21:22:52.205Z,85.90
2018-07-23T21:25:21.025Z,85.90
2018-07-23T21:27:50.002Z,86.30
2018-07-23T21:30:18.660Z,86.60
2018-07-23T21:32:47.428Z,86.70
2018-07-23T21:35:16.080Z,86.60
2018-07-23T21:37:44.780Z,86.80
2018-07-23T21:40:13.535Z,86.70
2018-07-23T21:42:42.243Z,86.90
2018-07-23T21:45:11.220Z,87.20
2018-07-23T21:47:39.800Z,87.30
2018-07-23T21:50:09.148Z,87.80
2018-07-23T21:52:37.851Z,87.80
2018-07-23T21:55:06.880Z,87.80
2018-07-23T21:57:35.636Z,87.90
2018-07-23T22:00:07.094Z,88.20
2018-07-23T22:02:35.821Z,88.20
2018-07-23T22:05:05.505Z,88.20
2018-07-23T22:07:34.233Z,88.20
2018-07-23T22:10:03.138Z,88.50
2018-07-23T22:12:31.804Z,88.40
2018-07-23T22:15:00.480Z,88.50
2018-07-23T22:17:29.144Z,88.40
2018-07-23T22:19:57.849Z,88.60
2018-07-23T22:22:26.651Z,88.60
2018-07-23T22:24:55.465Z,88.60
2018-07-23T22:27:24.263Z,88.80
2018-07-23T22:29:52.924Z,88.80
2018-07-23T22:32:21.645Z,89.10
2018-07-23T22:34:50.293Z,89.30
2018-07-23T22:37:19.013Z,89.10
2018-07-23T22:39:47.708Z,89.50
2018-07-23T22:42:16.349Z,89.30
2018-07-23T22:44:47.372Z,89.50
2018-07-23T22:47:16.031Z,89.70
2018-07-23T22:49:44.864Z,89.70
2018-07-23T22:52:13.513Z,89.50
2018-07-23T22:54:42.239Z,89.50
2018-07-23T22:57:10.881Z,89.90
2018-07-23T22:59:39.561Z,90.10
2018-07-23T23:02:08.332Z,90.10
2018-07-23T23:04:36.928Z,90.20
2018-07-23T23:07:05.617Z,90.20
2018-07-23T23:09:34.399Z,90.30
2018-07-23T23:12:03.217Z,90.30
2018-07-23T23:14:31.885Z,90.30
2018-07-23T23:17:00.493Z,90.20
2018-07-23T23:19:29.431Z,90.30
2018-07-23T23:21:58.048Z,90.30
2018-07-23T23:24:26.712Z,90.70
2018-07-23T23:26:55.236Z,90.60
2018-07-23T23:29:23.817Z,90.70
2018-07-23T23:31:52.392Z,90.60
2018-07-23T23:34:20.959Z,90.40
2018-07-23T23:36:49.535Z,90.60
2018-07-23T23:39:18.109Z,90.70
2018-07-23T23:41:46.775Z,90.70
2018-07-23T23:44:15.369Z,90.80
2018-07-23T23:46:43.972Z,90.80
2018-07-23T23:49:12.543Z,90.80
2018-07-23T23:51:41.147Z,90.90
2018-07-23T23:54:09.775Z,90.80
2018-07-23T23:56:38.400Z,90.90
2018-07-23T23:59:06.928Z,91.00
